createdAt,value
2023-05-05T00:00:58.130Z,95394.00
2023-05-05T00:01:58.142Z,95403.00
2023-05-05T00:02:58.148Z,95403.00
2023-05-05T00:03:58.217Z,95394.00
2023-05-05T00:04:58.128Z,95392.00
2023-05-05T00:05:58.129Z,95394.00
2023-05-05T00:06:58.101Z,95394.00
2023-05-05T00:07:58.092Z,95394.00
2023-05-05T00:08:58.078Z,95394.00
2023-05-05T00:09:58.075Z,95394.00
2023-05-05T00:10:58.089Z,95392.00
2023-05-05T00:11:58.061Z,95394.00
2023-05-05T00:12:58.096Z,95396.00
2023-05-05T00:13:58.067Z,95396.00
2023-05-05T00:14:58.055Z,95390.00
2023-05-05T00:15:58.092Z,95394.00
2023-05-05T00:16:58.087Z,95396.00
2023-05-05T00:17:58.076Z,95394.00
2023-05-05T00:18:58.049Z,95394.00
2023-05-05T00:19:58.027Z,95394.00
2023-05-05T00:20:58.032Z,95390.00
2023-05-05T00:21:58.019Z,95390.00
2023-05-05T00:22:58.034Z,95392.00
2023-05-05T00:23:58.016Z,95392.00
2023-05-05T00:24:58.007Z,95394.00
2023-05-05T00:25:58.001Z,95392.00
2023-05-05T00:26:58.024Z,95392.00
2023-05-05T00:27:57.993Z,95392.00
2023-05-05T00:28:57.988Z,95392.00
2023-05-05T00:29:57.974Z,95394.00
2023-05-05T00:30:57.983Z,95394.00
2023-05-05T00:31:57.956Z,95403.00
2023-05-05T00:32:57.983Z,95405.00
2023-05-05T00:33:57.953Z,95403.00
2023-05-05T00:34:57.957Z,95396.00
2023-05-05T00:35:57.965Z,95396.00
2023-05-05T00:36:57.976Z,95405.00
2023-05-05T00:37:57.956Z,95405.00
2023-05-05T00:38:57.952Z,95396.00
2023-05-05T00:39:57.952Z,95403.00
2023-05-05T00:40:57.952Z,95403.00
2023-05-05T00:41:57.941Z,95403.00
2023-05-05T00:42:57.969Z,95396.00
2023-05-05T00:43:57.943Z,95409.00
2023-05-05T00:44:57.936Z,95396.00
2023-05-05T00:45:57.983Z,95394.00
2023-05-05T00:46:57.951Z,95396.00
2023-05-05T00:47:57.955Z,95396.00
2023-05-05T00:48:57.975Z,95396.00
2023-05-05T00:49:57.921Z,95394.00
2023-05-05T00:50:57.930Z,95396.00
2023-05-05T00:51:57.902Z,95396.00
2023-05-05T00:52:57.913Z,95394.00
2023-05-05T00:53:57.896Z,95394.00
2023-05-05T00:54:57.896Z,95394.00
2023-05-05T00:55:57.886Z,95390.00
2023-05-05T00:56:57.882Z,95390.00
2023-05-05T00:57:57.907Z,95392.00
2023-05-05T00:58:57.898Z,95392.00
2023-05-05T00:59:57.913Z,95392.00
2023-05-05T01:00:57.875Z,95390.00
2023-05-05T01:01:57.923Z,95392.00
2023-05-05T01:02:58.050Z,95394.00
2023-05-05T01:03:57.977Z,95396.00
2023-05-05T01:04:57.875Z,95394.00
2023-05-05T01:05:57.910Z,95392.00
2023-05-05T01:06:57.870Z,95394.00
2023-05-05T01:07:57.870Z,95392.00
2023-05-05T01:08:57.867Z,95388.00
2023-05-05T01:10:10.957Z,95388.00
2023-05-05T01:10:57.870Z,95388.00
2023-05-05T01:11:57.878Z,95390.00
2023-05-05T01:12:57.863Z,95392.00
2023-05-05T01:13:57.827Z,95392.00
2023-05-05T01:14:57.844Z,95394.00
2023-05-05T01:15:57.826Z,95394.00
2023-05-05T01:16:57.793Z,95394.00
2023-05-05T01:17:57.819Z,95392.00
2023-05-05T01:18:57.755Z,95396.00
2023-05-05T01:19:57.738Z,95394.00
2023-05-05T01:20:57.758Z,95390.00
2023-05-05T01:21:57.737Z,95392.00
2023-05-05T01:22:57.710Z,95392.00
2023-05-05T01:23:57.699Z,95394.00
2023-05-05T01:24:57.692Z,95394.00
2023-05-05T01:25:57.689Z,95396.00
2023-05-05T01:26:57.673Z,95394.00
2023-05-05T01:27:57.675Z,95394.00
2023-05-05T01:28:57.670Z,95394.00
2023-05-05T01:29:57.659Z,95396.00
2023-05-05T01:30:57.680Z,95396.00
2023-05-05T01:31:57.769Z,95394.00
2023-05-05T01:32:57.666Z,95403.00
2023-05-05T01:33:57.646Z,95396.00
2023-05-05T01:34:57.639Z,95405.00
2023-05-05T01:35:57.631Z,95405.00
2023-05-05T01:36:57.625Z,95403.00
2023-05-05T01:37:57.622Z,95407.00
2023-05-05T01:38:57.607Z,95405.00
2023-05-05T01:39:57.603Z,95403.00
2023-05-05T01:40:57.601Z,95403.00
2023-05-05T01:41:57.592Z,95394.00
2023-05-05T01:42:57.594Z,95403.00
2023-05-05T01:43:57.579Z,95403.00
2023-05-05T01:44:57.606Z,95405.00
2023-05-05T01:45:57.625Z,95405.00
2023-05-05T01:46:57.584Z,95405.00
2023-05-05T01:47:57.646Z,95407.00
2023-05-05T01:48:57.554Z,95407.00
2023-05-05T01:49:57.553Z,95407.00
2023-05-05T01:50:57.559Z,95409.00
2023-05-05T01:51:57.539Z,95407.00
2023-05-05T01:52:57.528Z,95409.00
2023-05-05T01:53:57.520Z,95409.00
2023-05-05T01:54:57.507Z,95411.00
2023-05-05T01:55:57.520Z,95413.00
2023-05-05T01:56:57.489Z,95411.00
2023-05-05T01:57:57.472Z,95413.00
2023-05-05T01:58:57.461Z,95415.00
2023-05-05T01:59:57.448Z,95413.00
2023-05-05T02:00:57.471Z,95413.00
2023-05-05T02:01:57.430Z,95417.00
2023-05-05T02:02:57.622Z,95419.00
2023-05-05T02:03:57.438Z,95421.00
2023-05-05T02:04:57.405Z,95419.00
2023-05-05T02:05:57.387Z,95417.00
2023-05-05T02:06:57.384Z,95415.00
2023-05-05T02:07:57.369Z,95415.00
2023-05-05T02:08:57.359Z,95417.00
2023-05-05T02:09:57.353Z,95419.00
2023-05-05T02:10:57.353Z,95419.00
2023-05-05T02:11:57.335Z,95421.00
2023-05-05T02:12:57.434Z,95421.00
2023-05-05T02:13:57.337Z,95421.00
2023-05-05T02:14:57.303Z,95421.00
2023-05-05T02:15:57.304Z,95421.00
2023-05-05T02:16:57.277Z,95423.00
2023-05-05T02:17:57.312Z,95421.00
2023-05-05T02:18:57.276Z,95425.00
2023-05-05T02:19:57.248Z,95425.00
2023-05-05T02:20:57.242Z,95427.00
2023-05-05T02:21:57.247Z,95425.00
2023-05-05T02:22:57.206Z,95425.00
2023-05-05T02:23:57.190Z,95425.00
2023-05-05T02:24:57.182Z,95425.00
2023-05-05T02:25:57.174Z,95425.00
2023-05-05T02:26:57.159Z,95427.00
2023-05-05T02:27:57.134Z,95427.00
2023-05-05T02:28:57.122Z,95425.00
2023-05-05T02:29:57.112Z,95425.00
2023-05-05T02:30:57.148Z,95425.00
2023-05-05T02:31:57.072Z,95427.00
2023-05-05T02:32:57.078Z,95423.00
2023-05-05T02:33:57.065Z,95421.00
2023-05-05T02:34:57.062Z,95423.00
2023-05-05T02:35:57.034Z,95421.00
2023-05-05T02:36:57.015Z,95423.00
2023-05-05T02:37:56.999Z,95425.00
2023-05-05T02:38:56.988Z,95427.00
2023-05-05T02:39:56.978Z,95427.00
2023-05-05T02:40:56.973Z,95427.00
2023-05-05T02:41:56.963Z,95427.00
2023-05-05T02:42:56.975Z,95427.00
2023-05-05T02:43:56.943Z,95429.00
2023-05-05T02:44:56.926Z,95431.00
2023-05-05T02:45:56.917Z,95429.00
2023-05-05T02:46:56.912Z,95433.00
2023-05-05T02:47:56.925Z,95433.00
2023-05-05T02:48:56.881Z,95431.00
2023-05-05T02:49:56.870Z,95431.00
2023-05-05T02:50:56.870Z,95433.00
2023-05-05T02:51:56.842Z,95433.00
2023-05-05T02:52:56.830Z,95435.00
2023-05-05T02:53:56.814Z,95439.00
2023-05-05T02:54:56.800Z,95437.00
2023-05-05T02:55:56.813Z,95441.00
2023-05-05T02:56:56.815Z,95437.00
2023-05-05T02:57:56.797Z,95437.00
2023-05-05T02:58:56.761Z,95437.00
2023-05-05T02:59:56.747Z,95437.00
2023-05-05T03:00:56.742Z,95437.00
2023-05-05T03:01:56.814Z,95439.00
2023-05-05T03:02:56.791Z,95439.00
2023-05-05T03:03:56.737Z,95439.00
2023-05-05T03:04:56.696Z,95439.00
2023-05-05T03:05:56.687Z,95439.00
2023-05-05T03:06:56.692Z,95437.00
2023-05-05T03:07:56.656Z,95437.00
2023-05-05T03:08:56.647Z,95435.00
2023-05-05T03:09:56.633Z,95439.00
2023-05-05T03:10:56.624Z,95439.00
2023-05-05T03:11:56.614Z,95439.00
2023-05-05T03:12:56.632Z,95437.00
2023-05-05T03:13:56.590Z,95439.00
2023-05-05T03:14:56.578Z,95439.00
2023-05-05T03:15:56.585Z,95439.00
2023-05-05T03:16:56.584Z,95439.00
2023-05-05T03:17:56.618Z,95439.00
2023-05-05T03:18:56.540Z,95437.00
2023-05-05T03:19:56.530Z,95437.00
2023-05-05T03:20:56.521Z,95437.00
2023-05-05T03:21:56.510Z,95439.00
2023-05-05T03:22:56.521Z,95439.00
2023-05-05T03:23:56.547Z,95439.00
2023-05-05T03:24:56.477Z,95439.00
2023-05-05T03:25:56.470Z,95441.00
2023-05-05T03:26:56.462Z,95441.00
2023-05-05T03:27:56.449Z,95443.00
2023-05-05T03:28:56.441Z,95441.00
2023-05-05T03:29:56.451Z,95441.00
2023-05-05T03:30:56.447Z,95437.00
2023-05-05T03:31:56.476Z,95439.00
2023-05-05T03:32:56.443Z,95437.00
2023-05-05T03:33:56.423Z,95441.00
2023-05-05T03:34:56.424Z,95439.00
2023-05-05T03:35:56.419Z,95439.00
2023-05-05T03:36:56.431Z,95437.00
2023-05-05T03:37:56.421Z,95439.00
2023-05-05T03:38:56.455Z,95437.00
2023-05-05T03:39:56.428Z,95439.00
2023-05-05T03:40:56.449Z,95439.00
2023-05-05T03:41:56.441Z,95439.00
2023-05-05T03:42:56.453Z,95439.00
2023-05-05T03:43:56.456Z,95439.00
2023-05-05T03:44:56.458Z,95437.00
2023-05-05T03:45:56.491Z,95441.00
2023-05-05T03:46:56.471Z,95439.00
2023-05-05T03:47:56.485Z,95439.00
2023-05-05T03:48:56.468Z,95439.00
2023-05-05T03:49:56.472Z,95441.00
2023-05-05T03:50:56.488Z,95441.00
2023-05-05T03:51:56.485Z,95439.00
2023-05-05T03:52:56.488Z,95441.00
2023-05-05T03:53:56.510Z,95443.00
2023-05-05T03:54:56.521Z,95443.00
2023-05-05T03:55:56.499Z,95443.00
2023-05-05T03:56:56.534Z,95443.00
2023-05-05T03:57:56.509Z,95443.00
2023-05-05T03:58:56.507Z,95441.00
2023-05-05T03:59:56.519Z,95441.00
2023-05-05T04:00:56.534Z,95439.00
2023-05-05T04:01:56.558Z,95439.00
2023-05-05T04:02:57.278Z,95439.00
2023-05-05T04:03:56.626Z,95437.00
2023-05-05T04:04:56.539Z,95435.00
2023-05-05T04:05:56.568Z,95435.00
2023-05-05T04:06:56.557Z,95435.00
2023-05-05T04:07:56.559Z,95435.00
2023-05-05T04:08:56.565Z,95437.00
2023-05-05T04:09:56.580Z,95435.00
2023-05-05T04:10:56.702Z,95435.00
2023-05-05T04:11:56.589Z,95431.00
2023-05-05T04:12:56.705Z,95433.00
2023-05-05T04:13:56.637Z,95433.00
2023-05-05T04:14:56.642Z,95433.00
2023-05-05T04:15:56.651Z,95433.00
2023-05-05T04:16:56.621Z,95435.00
2023-05-05T04:17:56.677Z,95435.00
2023-05-05T04:18:56.635Z,95437.00
2023-05-05T04:19:56.639Z,95439.00
2023-05-05T04:20:56.668Z,95439.00
2023-05-05T04:21:56.675Z,95441.00
2023-05-05T04:22:56.666Z,95443.00
2023-05-05T04:23:56.675Z,95443.00
2023-05-05T04:24:56.674Z,95445.00
2023-05-05T04:25:56.702Z,95447.00
2023-05-05T04:26:56.719Z,95447.00
2023-05-05T04:27:56.702Z,95449.00
2023-05-05T04:28:56.721Z,95447.00
2023-05-05T04:29:56.733Z,95449.00
2023-05-05T04:30:56.767Z,95449.00
2023-05-05T04:31:56.731Z,95449.00
2023-05-05T04:32:56.753Z,95449.00
2023-05-05T04:33:56.742Z,95450.00
2023-05-05T04:34:56.757Z,95452.00
2023-05-05T04:35:56.751Z,95456.00
2023-05-05T04:36:56.766Z,95456.00
2023-05-05T04:37:56.758Z,95458.00
2023-05-05T04:38:56.814Z,95458.00
2023-05-05T04:39:56.772Z,95458.00
2023-05-05T04:40:56.779Z,95456.00
2023-05-05T04:41:56.826Z,95456.00
2023-05-05T04:42:56.818Z,95454.00
2023-05-05T04:43:56.798Z,95452.00
2023-05-05T04:44:56.812Z,95450.00
2023-05-05T04:45:56.795Z,95449.00
2023-05-05T04:46:56.835Z,95449.00
2023-05-05T04:47:56.835Z,95449.00
2023-05-05T04:48:56.805Z,95447.00
2023-05-05T04:49:56.807Z,95447.00
2023-05-05T04:50:56.818Z,95449.00
2023-05-05T04:51:56.815Z,95450.00
2023-05-05T04:52:56.838Z,95452.00
2023-05-05T04:53:56.833Z,95452.00
2023-05-05T04:54:56.846Z,95452.00
2023-05-05T04:55:56.838Z,95452.00
2023-05-05T04:56:56.841Z,95452.00
2023-05-05T04:57:56.845Z,95452.00
2023-05-05T04:58:56.986Z,95454.00
2023-05-05T04:59:56.856Z,95454.00
2023-05-05T05:00:56.853Z,95454.00
2023-05-05T05:01:56.896Z,95454.00
2023-05-05T05:02:56.940Z,95454.00
2023-05-05T05:03:56.907Z,95456.00
2023-05-05T05:04:56.881Z,95456.00
2023-05-05T05:05:56.896Z,95454.00
2023-05-05T05:06:59.247Z,95456.00
2023-05-05T05:07:56.893Z,95458.00
2023-05-05T05:08:56.885Z,95456.00
2023-05-05T05:09:56.879Z,95456.00
2023-05-05T05:10:56.872Z,95458.00
2023-05-05T05:11:56.856Z,95460.00
2023-05-05T05:12:57.207Z,95462.00
2023-05-05T05:13:56.846Z,95464.00
2023-05-05T05:14:56.858Z,95466.00
2023-05-05T05:15:56.857Z,95466.00
2023-05-05T05:16:56.830Z,95468.00
2023-05-05T05:17:57.187Z,95468.00
2023-05-05T05:18:56.813Z,95466.00
2023-05-05T05:19:56.810Z,95466.00
2023-05-05T05:20:56.794Z,95468.00
2023-05-05T05:21:56.782Z,95464.00
2023-05-05T05:22:57.175Z,95464.00
2023-05-05T05:23:56.762Z,95468.00
2023-05-05T05:24:56.762Z,95468.00
2023-05-05T05:25:56.750Z,95468.00
2023-05-05T05:26:56.744Z,95470.00
2023-05-05T05:28:09.009Z,95470.00
2023-05-05T05:28:56.725Z,95466.00
2023-05-05T05:29:56.746Z,95466.00
2023-05-05T05:30:56.719Z,95466.00
2023-05-05T05:31:57.178Z,95462.00
2023-05-05T05:32:56.722Z,95464.00
2023-05-05T05:33:56.689Z,95460.00
2023-05-05T05:34:56.682Z,95462.00
2023-05-05T05:35:56.671Z,95462.00
2023-05-05T05:36:57.150Z,95468.00
2023-05-05T05:37:56.674Z,95466.00
2023-05-05T05:38:56.663Z,95466.00
2023-05-05T05:39:56.649Z,95466.00
2023-05-05T05:40:56.634Z,95470.00
2023-05-05T05:41:56.662Z,95468.00
2023-05-05T05:42:56.661Z,95462.00
2023-05-05T05:43:56.612Z,95468.00
2023-05-05T05:44:57.601Z,95468.00
2023-05-05T05:45:56.627Z,95462.00
2023-05-05T05:46:56.677Z,95468.00
2023-05-05T05:47:56.627Z,95468.00
2023-05-05T05:48:56.585Z,95472.00
2023-05-05T05:49:56.592Z,95468.00
2023-05-05T05:50:56.853Z,95470.00
2023-05-05T05:51:56.654Z,95466.00
2023-05-05T05:52:56.654Z,95470.00
2023-05-05T05:53:58.767Z,95472.00
2023-05-05T05:54:56.547Z,95472.00
2023-05-05T05:55:56.684Z,95476.00
2023-05-05T05:56:56.652Z,95474.00
2023-05-05T05:57:56.532Z,95474.00
2023-05-05T05:58:56.505Z,95470.00
2023-05-05T06:02:03.926Z,95470.00
2023-05-05T06:06:11.988Z,95470.00
2023-05-05T06:06:59.602Z,95466.00
2023-05-05T06:07:56.642Z,95468.00
2023-05-05T06:08:56.673Z,95466.00
2023-05-05T06:09:56.329Z,95470.00
2023-05-05T06:11:59.501Z,95470.00
2023-05-05T06:15:11.874Z,95466.00
2023-05-05T06:15:56.340Z,95468.00
2023-05-05T06:16:56.193Z,95470.00
2023-05-05T06:17:56.229Z,95466.00
2023-05-05T06:18:56.155Z,95462.00
2023-05-05T06:19:56.142Z,95462.00
2023-05-05T06:20:56.173Z,95460.00
2023-05-05T06:21:56.319Z,95460.00
2023-05-05T06:23:56.077Z,95458.00
2023-05-05T06:24:56.033Z,95462.00
2023-05-05T06:25:56.035Z,95462.00
2023-05-05T06:26:56.226Z,95464.00
2023-05-05T06:27:55.991Z,95462.00
2023-05-05T06:28:56.967Z,95464.00
2023-05-05T06:29:55.971Z,95464.00
2023-05-05T06:30:55.897Z,95464.00
2023-05-05T06:31:55.933Z,95464.00
2023-05-05T06:32:56.116Z,95462.00
2023-05-05T06:33:56.186Z,95462.00
2023-05-05T06:34:55.868Z,95462.00
2023-05-05T06:35:55.857Z,95456.00
2023-05-05T06:36:55.892Z,95462.00
2023-05-05T06:37:55.815Z,95456.00
2023-05-05T06:38:56.212Z,95458.00
2023-05-05T06:39:55.899Z,95458.00
2023-05-05T06:40:55.885Z,95460.00
2023-05-05T06:41:55.935Z,95458.00
2023-05-05T06:42:55.962Z,95456.00
2023-05-05T06:43:56.187Z,95456.00
2023-05-05T06:44:56.007Z,95456.00
2023-05-05T06:45:56.410Z,95458.00
2023-05-05T06:46:57.194Z,95462.00
2023-05-05T06:47:56.253Z,95458.00
2023-05-05T06:48:57.143Z,95458.00
2023-05-05T06:49:56.261Z,95460.00
2023-05-05T06:50:56.199Z,95458.00
2023-05-05T06:51:56.228Z,95458.00
2023-05-05T06:52:56.260Z,95460.00
2023-05-05T12:17:02.521Z,95064.00
2023-05-05T12:18:03.790Z,95066.00
2023-05-05T12:19:03.473Z,95066.00
2023-05-05T12:20:03.547Z,95064.00
2023-05-05T12:21:03.594Z,95066.00
2023-05-05T12:22:03.666Z,95062.00
2023-05-05T12:23:03.732Z,95064.00
2023-05-05T12:24:03.775Z,95062.00
2023-05-05T12:25:03.821Z,95062.00
2023-05-05T12:26:03.884Z,95060.00
2023-05-05T12:27:03.932Z,95060.00
2023-05-05T12:28:03.974Z,95056.00
2023-05-05T12:29:04.026Z,95060.00
2023-05-05T12:30:04.071Z,95054.00
2023-05-05T12:31:04.165Z,95051.00
2023-05-05T12:32:04.281Z,95047.00
2023-05-05T12:33:04.438Z,95049.00
2023-05-05T12:34:04.211Z,95047.00
2023-05-05T12:35:04.261Z,95045.00
2023-05-05T12:36:04.298Z,95045.00
2023-05-05T12:37:04.359Z,95043.00
2023-05-05T12:38:04.378Z,95043.00
2023-05-05T12:39:04.434Z,95041.00
2023-05-05T12:40:04.437Z,95037.00
2023-05-05T12:41:04.468Z,95033.00
2023-05-05T12:42:04.552Z,95039.00
2023-05-05T12:43:04.537Z,95031.00
2023-05-05T12:44:05.020Z,95039.00
2023-05-05T12:45:04.648Z,95037.00
2023-05-05T12:46:04.689Z,95035.00
2023-05-05T12:47:04.705Z,95027.00
2023-05-05T12:48:04.762Z,95025.00
2023-05-05T12:49:05.054Z,95025.00
2023-05-05T12:50:05.024Z,95023.00
2023-05-05T12:51:04.871Z,95019.00
2023-05-05T12:52:04.896Z,95019.00
2023-05-05T12:53:04.922Z,95021.00
2023-05-05T12:54:04.954Z,95021.00
2023-05-05T12:55:05.025Z,95017.00
2023-05-05T12:56:05.016Z,95015.00
2023-05-05T12:57:05.058Z,95015.00
2023-05-05T12:58:05.119Z,95013.00
2023-05-05T12:59:05.157Z,95009.00
2023-05-05T13:00:05.304Z,95007.00
2023-05-05T13:01:05.263Z,95007.00
2023-05-05T13:02:05.263Z,95007.00
2023-05-05T13:03:05.343Z,95006.00
2023-05-05T13:04:05.357Z,95007.00
2023-05-05T13:05:05.637Z,95006.00
2023-05-05T13:06:05.432Z,95004.00
2023-05-05T13:07:05.470Z,95004.00
2023-05-05T13:08:05.516Z,94998.00
2023-05-05T13:09:05.578Z,94998.00
2023-05-05T13:10:06.038Z,94998.00
2023-05-05T13:11:05.673Z,94996.00
2023-05-05T13:12:05.708Z,94998.00
2023-05-05T13:13:06.067Z,94996.00
2023-05-05T13:14:05.807Z,94992.00
2023-05-05T13:15:05.962Z,94998.00
2023-05-05T13:16:05.865Z,94992.00
2023-05-05T13:17:05.860Z,94992.00
2023-05-05T13:18:05.905Z,94988.00
2023-05-05T13:19:05.884Z,94990.00
2023-05-05T13:20:05.897Z,94984.00
2023-05-05T13:21:06.002Z,94982.00
2023-05-05T13:22:05.922Z,94982.00
2023-05-05T13:23:05.921Z,94978.00
2023-05-05T13:24:21.481Z,94980.00
2023-05-05T13:25:05.967Z,94976.00
2023-05-05T13:26:05.957Z,94972.00
2023-05-05T13:27:05.939Z,94974.00
2023-05-05T13:28:05.947Z,94972.00
2023-05-05T13:29:05.942Z,94966.00
2023-05-05T13:30:06.063Z,94968.00
2023-05-05T13:31:05.977Z,94964.00
2023-05-05T13:32:05.951Z,94960.00
2023-05-05T13:33:06.002Z,94959.00
2023-05-05T13:34:06.048Z,94959.00
2023-05-05T13:35:06.152Z,94957.00
2023-05-05T13:36:05.951Z,94953.00
2023-05-05T13:37:05.982Z,94949.00
2023-05-05T13:38:05.950Z,94947.00
2023-05-05T13:39:05.961Z,94945.00
2023-05-05T13:40:05.989Z,94941.00
2023-05-05T13:41:05.963Z,94939.00
2023-05-05T13:42:05.967Z,94941.00
2023-05-05T13:43:05.986Z,94935.00
2023-05-05T13:44:05.995Z,94935.00
2023-05-05T13:45:06.061Z,94935.00
2023-05-05T13:46:18.782Z,94933.00
2023-05-05T13:47:06.056Z,94929.00
2023-05-05T13:48:06.065Z,94929.00
2023-05-05T13:49:06.052Z,94925.00
2023-05-05T13:50:06.025Z,94925.00
2023-05-05T13:51:06.005Z,94923.00
2023-05-05T13:52:06.026Z,94923.00
2023-05-05T13:53:06.097Z,94921.00
2023-05-05T13:54:06.009Z,94921.00
2023-05-05T13:55:06.051Z,94917.00
2023-05-05T13:56:06.015Z,94919.00
2023-05-05T13:57:06.008Z,94915.00
2023-05-05T13:58:06.024Z,94913.00
2023-05-05T13:59:06.007Z,94913.00
2023-05-05T14:00:06.026Z,94913.00
2023-05-05T14:01:06.551Z,94909.00
2023-05-05T14:02:06.019Z,94907.00
2023-05-05T14:03:06.121Z,94905.00
2023-05-05T14:04:06.363Z,94904.00
2023-05-05T14:05:06.144Z,94900.00
2023-05-05T14:06:06.037Z,94898.00
2023-05-05T14:07:06.037Z,94898.00
2023-05-05T14:08:06.016Z,94896.00
2023-05-05T14:09:06.497Z,94894.00
2023-05-05T14:10:06.110Z,94892.00
2023-05-05T14:11:06.036Z,94890.00
2023-05-05T14:12:06.027Z,94890.00
2023-05-05T14:13:06.067Z,94880.00
2023-05-05T14:14:06.074Z,94880.00
2023-05-05T14:15:06.110Z,94874.00
2023-05-05T14:16:06.049Z,94876.00
2023-05-05T14:17:06.079Z,94874.00
2023-05-05T14:18:06.052Z,94872.00
2023-05-05T14:19:06.031Z,94874.00
2023-05-05T14:20:06.089Z,94872.00
2023-05-05T14:21:06.019Z,94870.00
2023-05-05T14:22:06.020Z,94874.00
2023-05-05T14:23:06.026Z,94872.00
2023-05-05T14:24:06.027Z,94866.00
2023-05-05T14:25:06.198Z,94868.00
2023-05-05T14:26:06.038Z,94866.00
2023-05-05T14:27:06.033Z,94866.00
2023-05-05T14:28:06.023Z,94864.00
2023-05-05T14:29:06.043Z,94864.00
2023-05-05T14:30:06.035Z,94862.00
2023-05-05T14:31:06.077Z,94862.00
2023-05-05T14:32:06.091Z,94864.00
2023-05-05T14:33:06.136Z,94860.00
2023-05-05T14:34:06.557Z,94859.00
2023-05-05T14:35:06.204Z,94860.00
2023-05-05T14:36:06.085Z,94862.00
2023-05-05T14:37:06.088Z,94860.00
2023-05-05T14:38:06.155Z,94862.00
2023-05-05T14:39:06.561Z,94860.00
2023-05-05T14:40:06.194Z,94860.00
2023-05-05T14:41:06.194Z,94860.00
2023-05-05T14:42:06.100Z,94859.00
2023-05-05T14:43:06.119Z,94859.00
2023-05-05T14:44:06.105Z,94857.00
2023-05-05T14:45:06.257Z,94855.00
2023-05-05T14:46:06.135Z,94859.00
2023-05-05T14:47:06.113Z,94855.00
2023-05-05T14:48:06.110Z,94855.00
2023-05-05T14:49:06.117Z,94855.00
2023-05-05T14:50:06.123Z,94855.00
2023-05-05T14:51:06.147Z,94853.00
2023-05-05T14:52:06.142Z,94851.00
2023-05-05T14:53:06.122Z,94855.00
2023-05-05T14:54:14.227Z,94853.00
2023-05-05T14:55:06.329Z,94851.00
2023-05-05T14:56:06.137Z,94849.00
2023-05-05T14:57:06.593Z,94851.00
2023-05-05T14:58:06.128Z,94849.00
2023-05-05T14:59:06.141Z,94849.00
2023-05-05T15:00:06.144Z,94847.00
2023-05-05T15:01:06.259Z,94845.00
2023-05-05T15:02:06.191Z,94843.00
2023-05-05T15:03:06.246Z,94845.00
2023-05-05T15:04:06.257Z,94845.00
2023-05-05T15:05:06.346Z,94843.00
2023-05-05T15:06:06.571Z,94845.00
2023-05-05T15:07:06.197Z,94841.00
2023-05-05T15:08:06.209Z,94845.00
2023-05-05T15:09:06.227Z,94839.00
2023-05-05T15:10:06.217Z,94845.00
2023-05-05T15:11:06.239Z,94841.00
2023-05-05T15:12:06.223Z,94839.00
2023-05-05T15:13:06.447Z,94841.00
2023-05-05T15:14:06.235Z,94841.00
2023-05-05T15:15:06.393Z,94841.00
2023-05-05T15:16:06.310Z,94841.00
2023-05-05T15:17:06.252Z,94839.00
2023-05-05T15:18:06.280Z,94839.00
2023-05-05T15:19:06.275Z,94839.00
2023-05-05T15:20:06.280Z,94839.00
2023-05-05T15:21:06.297Z,94841.00
2023-05-05T15:22:06.302Z,94841.00
2023-05-05T15:23:06.313Z,94833.00
2023-05-05T15:24:06.334Z,94835.00
2023-05-05T15:25:06.473Z,94837.00
2023-05-05T15:26:06.342Z,94837.00
2023-05-05T15:27:06.368Z,94837.00
2023-05-05T15:28:06.354Z,94835.00
2023-05-05T15:29:06.383Z,94837.00
2023-05-05T15:30:06.368Z,94833.00
2023-05-05T15:31:06.372Z,94835.00
2023-05-05T15:32:06.416Z,94833.00
2023-05-05T15:33:06.442Z,94833.00
2023-05-05T15:34:06.403Z,94833.00
2023-05-05T15:35:07.417Z,94833.00
2023-05-05T15:36:06.429Z,94833.00
2023-05-05T15:37:06.428Z,94831.00
2023-05-05T15:38:06.451Z,94831.00
2023-05-05T15:39:06.460Z,94831.00
2023-05-05T15:40:06.464Z,94829.00
2023-05-05T15:41:06.478Z,94831.00
2023-05-05T15:42:06.477Z,94831.00
2023-05-05T15:43:06.486Z,94827.00
2023-05-05T15:44:06.489Z,94827.00
2023-05-05T15:45:06.902Z,94829.00
2023-05-05T15:46:06.518Z,94829.00
2023-05-05T15:47:06.565Z,94829.00
2023-05-05T15:48:06.646Z,94827.00
2023-05-05T15:49:06.552Z,94825.00
2023-05-05T15:50:06.596Z,94823.00
2023-05-05T15:51:06.603Z,94823.00
2023-05-05T15:52:06.604Z,94821.00
2023-05-05T15:53:06.596Z,94821.00
2023-05-05T15:54:06.605Z,94819.00
2023-05-05T15:55:06.811Z,94819.00
2023-05-05T15:56:06.629Z,94819.00
2023-05-05T15:57:06.643Z,94815.00
2023-05-05T15:58:06.664Z,94817.00
2023-05-05T15:59:07.495Z,94813.00
2023-05-05T16:00:06.694Z,94815.00
2023-05-05T16:01:06.970Z,94813.00
2023-05-05T16:02:06.794Z,94813.00
2023-05-05T16:03:06.855Z,94815.00
2023-05-05T16:04:06.791Z,94815.00
2023-05-05T16:05:07.113Z,94811.00
2023-05-05T16:06:06.851Z,94811.00
2023-05-05T16:07:06.881Z,94811.00
2023-05-05T16:08:06.909Z,94809.00
2023-05-05T16:09:06.941Z,94809.00
2023-05-05T16:10:06.960Z,94808.00
2023-05-05T16:11:06.991Z,94806.00
2023-05-05T16:12:07.028Z,94806.00
2023-05-05T16:13:07.199Z,94806.00
2023-05-05T16:14:07.072Z,94806.00
2023-05-05T16:15:07.342Z,94806.00
2023-05-05T16:16:07.145Z,94806.00
2023-05-05T16:17:07.372Z,94808.00
2023-05-05T16:18:07.236Z,94808.00
2023-05-05T16:19:07.239Z,94806.00
2023-05-05T16:20:07.282Z,94804.00
2023-05-05T16:21:07.286Z,94806.00
2023-05-05T16:22:07.309Z,94806.00
2023-05-05T16:23:07.352Z,94809.00
2023-05-05T16:24:07.370Z,94808.00
2023-05-05T16:25:07.666Z,94809.00
2023-05-05T16:26:07.438Z,94811.00
2023-05-05T16:27:07.455Z,94813.00
2023-05-05T16:28:07.485Z,94817.00
2023-05-05T16:29:07.527Z,94817.00
2023-05-05T16:30:07.554Z,94819.00
2023-05-05T16:31:07.589Z,94819.00
2023-05-05T16:32:07.626Z,94819.00
2023-05-05T16:33:07.782Z,94819.00
2023-05-05T16:34:07.687Z,94819.00
2023-05-05T16:35:07.922Z,94819.00
2023-05-05T16:36:07.737Z,94819.00
2023-05-05T16:37:07.788Z,94817.00
2023-05-05T16:38:07.915Z,94817.00
2023-05-05T16:39:07.832Z,94817.00
2023-05-05T16:40:07.865Z,94813.00
2023-05-05T16:41:07.938Z,94813.00
2023-05-05T16:42:07.913Z,94809.00
2023-05-05T16:43:07.946Z,94811.00
2023-05-05T16:44:07.992Z,94806.00
2023-05-05T16:45:08.399Z,94808.00
2023-05-05T16:46:08.108Z,94806.00
2023-05-05T16:47:08.068Z,94806.00
2023-05-05T16:48:09.215Z,94806.00
2023-05-05T16:49:08.232Z,94809.00
2023-05-05T16:50:08.177Z,94806.00
2023-05-05T16:51:08.210Z,94806.00
2023-05-05T16:52:08.248Z,94804.00
2023-05-05T16:53:08.288Z,94804.00
2023-05-05T16:54:08.329Z,94802.00
2023-05-05T16:55:08.530Z,94802.00
2023-05-05T16:56:08.407Z,94802.00
2023-05-05T16:57:08.420Z,94802.00
2023-05-05T16:58:08.464Z,94804.00
2023-05-05T16:59:08.489Z,94802.00
2023-05-05T17:00:08.534Z,94802.00
2023-05-05T17:01:08.609Z,94806.00
2023-05-05T17:02:08.713Z,94806.00
2023-05-05T17:03:08.628Z,94802.00
2023-05-05T17:04:08.673Z,94802.00
2023-05-05T17:05:09.108Z,94808.00
2023-05-05T17:06:08.738Z,94804.00
2023-05-05T17:07:08.778Z,94804.00
2023-05-05T17:08:08.814Z,94808.00
2023-05-05T17:09:08.861Z,94806.00
2023-05-05T17:10:08.900Z,94806.00
2023-05-05T17:11:10.979Z,94808.00
2023-05-05T17:12:08.946Z,94809.00
2023-05-05T17:13:09.006Z,94806.00
2023-05-05T17:14:08.987Z,94808.00
2023-05-05T17:15:09.194Z,94808.00
2023-05-05T17:16:09.107Z,94806.00
2023-05-05T17:17:09.024Z,94808.00